createdAt,value
2023-01-19T00:01:58.383Z,88.99
2023-01-19T00:04:00.092Z,87.50
2023-01-19T00:06:05.823Z,87.35
2023-01-19T00:08:14.743Z,88.51
2023-01-19T00:10:16.990Z,88.32
2023-01-19T00:12:18.594Z,86.87
2023-01-19T00:14:20.200Z,86.69
2023-01-19T00:16:23.207Z,87.96
2023-01-19T00:18:25.714Z,87.80
2023-01-19T00:20:27.395Z,86.68
2023-01-19T00:22:28.923Z,86.19
2023-01-19T00:24:30.533Z,86.72
2023-01-19T00:26:32.131Z,89.03
2023-01-19T00:28:34.138Z,87.35
2023-01-19T00:30:35.855Z,87.76
2023-01-19T00:32:37.387Z,86.63
2023-01-19T00:34:40.235Z,87.78
2023-01-19T00:36:42.862Z,89.62
2023-01-19T00:38:44.466Z,90.52
2023-01-19T00:40:46.784Z,89.03
2023-01-19T00:42:48.817Z,88.10
2023-01-19T00:44:50.523Z,90.29
2023-01-19T00:46:52.079Z,89.11
2023-01-19T00:48:53.582Z,88.51
2023-01-19T00:50:55.073Z,87.03
2023-01-19T00:52:57.718Z,87.52
2023-01-19T00:54:59.455Z,87.93
2023-01-19T00:57:01.820Z,88.50
2023-01-19T00:59:03.838Z,87.79
2023-01-19T01:01:06.026Z,89.32
2023-01-19T01:03:07.836Z,88.67
2023-01-19T01:05:11.313Z,89.35
2023-01-19T01:07:12.860Z,87.81
2023-01-19T01:09:14.419Z,86.76
2023-01-19T01:11:15.901Z,87.68
2023-01-19T01:13:20.916Z,87.41
2023-01-19T01:15:27.179Z,87.07
2023-01-19T01:17:28.904Z,85.59
2023-01-19T01:19:30.678Z,86.40
2023-01-19T01:21:34.426Z,87.19
2023-01-19T01:23:35.999Z,86.34
2023-01-19T01:25:38.516Z,87.69
2023-01-19T01:27:40.239Z,87.58
2023-01-19T01:29:48.274Z,86.90
2023-01-19T01:31:49.897Z,87.42
2023-01-19T01:33:51.642Z,85.77
2023-01-19T01:35:53.971Z,86.31
2023-01-19T01:37:58.779Z,88.81
2023-01-19T01:40:00.563Z,91.71
2023-01-19T01:42:03.251Z,90.97
2023-01-19T01:44:49.494Z,89.52
2023-01-19T01:46:51.294Z,87.65
2023-01-19T01:49:10.360Z,85.50
2023-01-19T01:51:25.142Z,86.52
2023-01-19T01:53:29.770Z,86.95
2023-01-19T01:55:34.606Z,88.85
2023-01-19T01:57:40.006Z,88.95
2023-01-19T01:59:47.669Z,90.83
2023-01-19T02:02:08.406Z,91.17
2023-01-19T02:04:11.835Z,90.57
2023-01-19T02:06:14.398Z,89.53
2023-01-19T02:08:46.191Z,88.99
2023-01-19T02:11:07.520Z,90.25
2023-01-19T02:13:21.132Z,91.15
2023-01-19T02:15:22.867Z,89.75
2023-01-19T02:17:24.716Z,90.30
2023-01-19T02:19:53.808Z,94.42
2023-01-19T02:22:06.435Z,94.83
2023-01-19T02:24:12.073Z,95.34
2023-01-19T02:26:18.334Z,94.52
2023-01-19T02:28:20.638Z,93.61
2023-01-19T02:30:22.810Z,92.23
2023-01-19T02:32:24.811Z,91.98
2023-01-19T02:34:26.467Z,92.43
2023-01-19T02:36:38.549Z,94.13
2023-01-19T02:38:43.820Z,93.95
2023-01-19T02:40:46.479Z,93.97
2023-01-19T02:42:51.670Z,93.63
2023-01-19T02:44:56.430Z,93.52
2023-01-19T02:46:58.457Z,94.75
2023-01-19T02:49:00.425Z,93.76
2023-01-19T02:51:10.867Z,94.15
2023-01-19T02:53:18.258Z,93.60
2023-01-19T02:55:28.295Z,93.95
2023-01-19T02:57:32.542Z,93.56
2023-01-19T02:59:48.495Z,93.56
2023-01-19T03:01:55.774Z,92.62
2023-01-19T03:04:14.464Z,93.68
2023-01-19T03:06:33.725Z,93.52
2023-01-19T03:09:02.535Z,93.55
2023-01-19T03:11:12.708Z,92.88
2023-01-19T03:13:21.450Z,92.24
2023-01-19T03:15:37.431Z,91.63
2023-01-19T03:17:40.651Z,92.12
2023-01-19T03:19:45.799Z,91.45
2023-01-19T03:21:52.005Z,91.67
2023-01-19T03:23:58.469Z,91.83
2023-01-19T03:26:01.839Z,92.21
2023-01-19T03:28:04.717Z,91.86
2023-01-19T03:30:15.653Z,92.20
2023-01-19T03:32:22.201Z,91.71
2023-01-19T03:34:24.098Z,91.34
2023-01-19T03:36:31.953Z,90.98
2023-01-19T03:38:37.091Z,91.47
2023-01-19T03:40:39.706Z,91.11
2023-01-19T03:42:42.574Z,91.28
2023-01-19T03:44:46.249Z,91.17
2023-01-19T03:46:48.741Z,91.00
2023-01-19T03:48:50.873Z,90.57
2023-01-19T03:50:53.136Z,91.39
2023-01-19T03:53:11.377Z,91.91
2023-01-19T03:55:13.681Z,92.06
2023-01-19T03:57:15.336Z,91.21
2023-01-19T03:59:17.567Z,91.66
2023-01-19T04:01:23.116Z,91.67
2023-01-19T04:03:24.906Z,91.70
2023-01-19T04:05:26.554Z,91.97
2023-01-19T04:07:28.375Z,91.04
2023-01-19T04:09:29.918Z,90.68
2023-01-19T04:11:31.608Z,90.47
2023-01-19T04:13:33.157Z,91.07
2023-01-19T04:15:34.742Z,91.66
2023-01-19T04:17:36.669Z,92.18
2023-01-19T04:19:38.503Z,92.28
2023-01-19T04:21:40.034Z,92.39
2023-01-19T04:23:41.583Z,91.50
2023-01-19T04:25:43.157Z,91.88
2023-01-19T04:27:44.757Z,92.71
2023-01-19T04:29:46.321Z,92.57
2023-01-19T04:31:47.917Z,93.13
2023-01-19T04:33:49.543Z,93.17
2023-01-19T04:35:54.406Z,93.21
2023-01-19T04:37:56.082Z,92.78
2023-01-19T04:39:57.797Z,93.84
2023-01-19T04:41:59.409Z,94.43
2023-01-19T04:44:01.000Z,94.48
2023-01-19T04:46:02.800Z,94.65
2023-01-19T04:48:05.675Z,95.79
2023-01-19T04:50:08.406Z,94.89
2023-01-19T04:52:09.944Z,93.93
2023-01-19T04:54:11.513Z,92.97
2023-01-19T04:56:13.099Z,93.43
2023-01-19T04:58:15.638Z,94.95
2023-01-19T05:00:17.776Z,94.70
2023-01-19T05:02:19.472Z,93.76
2023-01-19T05:04:22.361Z,94.84
2023-01-19T05:06:23.964Z,94.80
2023-01-19T05:08:25.846Z,94.37
2023-01-19T05:10:27.999Z,93.53
2023-01-19T05:12:29.523Z,92.93
2023-01-19T05:14:31.159Z,93.07
2023-01-19T05:16:34.676Z,92.91
2023-01-19T05:18:37.003Z,93.24
2023-01-19T05:20:39.598Z,93.11
2023-01-19T05:22:41.360Z,92.44
2023-01-19T05:24:42.943Z,91.75
2023-01-19T05:26:44.551Z,91.41
2023-01-19T05:28:46.091Z,91.30
2023-01-19T05:30:49.437Z,91.79
2023-01-19T05:32:51.041Z,91.73
2023-01-19T05:34:52.531Z,91.39
2023-01-19T05:36:54.073Z,91.31
2023-01-19T05:38:56.050Z,91.50
2023-01-19T05:40:58.797Z,92.45
2023-01-19T05:43:02.711Z,92.04
2023-01-19T05:45:05.554Z,92.15
2023-01-19T05:47:07.359Z,93.36
2023-01-19T05:49:11.292Z,93.62
2023-01-19T05:51:12.927Z,92.52
2023-01-19T05:53:16.072Z,92.83
2023-01-19T05:55:18.141Z,93.09
2023-01-19T05:57:19.717Z,93.09
2023-01-19T05:59:24.088Z,93.18
2023-01-19T06:01:26.462Z,93.46
2023-01-19T06:03:28.113Z,92.94
2023-01-19T06:05:29.793Z,92.27
2023-01-19T06:07:31.801Z,92.61
2023-01-19T06:09:33.764Z,93.26
2023-01-19T06:11:35.352Z,93.23
2023-01-19T06:13:41.283Z,93.20
2023-01-19T06:15:44.889Z,93.39
2023-01-19T06:17:46.509Z,92.79
2023-01-19T06:19:48.049Z,92.50
2023-01-19T06:21:52.441Z,92.84
2023-01-19T06:23:54.084Z,94.27
2023-01-19T06:25:57.044Z,94.97
2023-01-19T06:27:58.555Z,94.63
2023-01-19T06:30:00.583Z,94.27
2023-01-19T06:32:02.192Z,95.54
2023-01-19T06:34:04.084Z,89.77
2023-01-19T06:36:05.698Z,90.95
2023-01-19T06:38:07.201Z,92.19
2023-01-19T06:40:09.438Z,92.75
2023-01-19T06:42:11.522Z,92.52
2023-01-19T06:44:13.213Z,92.57
2023-01-19T06:46:15.392Z,92.45
2023-01-19T06:48:18.485Z,92.70
2023-01-19T06:50:20.048Z,92.39
2023-01-19T06:52:21.622Z,92.21
2023-01-19T06:54:23.486Z,92.88
2023-01-19T06:56:25.465Z,92.72
2023-01-19T06:58:28.396Z,93.22
2023-01-19T07:00:29.996Z,93.58
2023-01-19T07:02:31.968Z,93.20
2023-01-19T07:04:33.872Z,93.89
2023-01-19T07:06:35.849Z,93.66
2023-01-19T07:08:38.508Z,93.90
2023-01-19T07:11:25.978Z,93.86
2023-01-19T07:13:02.057Z,93.33
2023-01-19T07:15:05.055Z,93.31
2023-01-19T07:17:06.876Z,93.72
2023-01-19T07:19:10.638Z,93.39
2023-01-19T07:21:12.139Z,92.82
2023-01-19T07:23:13.663Z,92.60
2023-01-19T07:25:15.412Z,93.36
2023-01-19T07:27:17.766Z,92.95
2023-01-19T07:29:20.366Z,93.15
2023-01-19T07:31:22.037Z,92.54
2023-01-19T07:33:25.694Z,93.63
2023-01-19T07:35:29.509Z,93.39
2023-01-19T07:37:31.017Z,92.58
2023-01-19T07:39:32.678Z,92.31
2023-01-19T07:41:34.279Z,91.15
2023-01-19T07:43:39.065Z,91.04
2023-01-19T07:45:40.707Z,90.77
2023-01-19T07:47:48.568Z,90.87
2023-01-19T07:49:50.221Z,91.35
2023-01-19T07:51:51.754Z,90.75
2023-01-19T07:53:53.314Z,90.33
2023-01-19T07:55:56.382Z,90.08
2023-01-19T07:57:57.990Z,90.90
2023-01-19T08:00:00.002Z,90.38
2023-01-19T08:02:01.906Z,90.66
2023-01-19T08:04:03.604Z,90.57
2023-01-19T08:06:06.916Z,89.98
2023-01-19T08:08:08.536Z,91.07
2023-01-19T08:10:11.010Z,90.57
2023-01-19T08:12:12.592Z,90.77
2023-01-19T08:14:14.275Z,91.89
2023-01-19T08:16:16.087Z,92.06
2023-01-19T08:18:18.547Z,92.58
2023-01-19T08:20:20.114Z,93.02
2023-01-19T08:22:22.476Z,92.77
2023-01-19T08:24:28.994Z,92.31
2023-01-19T08:26:33.343Z,92.58
2023-01-19T08:28:34.906Z,100.00
2023-01-19T08:30:36.611Z,92.52
2023-01-19T08:32:38.118Z,88.00
2023-01-19T08:34:39.711Z,87.74
2023-01-19T08:36:41.552Z,89.00
2023-01-19T08:38:45.163Z,91.06
2023-01-19T08:40:46.728Z,92.73
2023-01-19T08:42:48.343Z,91.84
2023-01-19T08:44:58.109Z,91.65
2023-01-19T08:47:00.424Z,91.42
2023-01-19T08:49:02.219Z,91.30
2023-01-19T08:51:03.926Z,91.40
2023-01-19T08:53:06.878Z,91.56
2023-01-19T08:55:09.326Z,91.52
2023-01-19T08:57:10.891Z,91.61
2023-01-19T08:59:13.211Z,91.73
2023-01-19T09:01:16.846Z,92.04
2023-01-19T09:03:19.504Z,91.21
2023-01-19T09:05:21.001Z,90.07
2023-01-19T09:07:22.937Z,89.83
2023-01-19T09:09:24.483Z,88.87
2023-01-19T09:11:27.823Z,88.16
2023-01-19T09:13:29.528Z,88.52
2023-01-19T09:15:33.935Z,88.37
2023-01-19T09:17:35.564Z,87.65
2023-01-19T09:19:37.125Z,88.71
2023-01-19T09:21:38.801Z,88.52
2023-01-19T09:23:40.475Z,88.02
2023-01-19T09:25:44.056Z,88.56
2023-01-19T09:27:45.976Z,88.56
2023-01-19T09:29:52.483Z,88.86
2023-01-19T09:31:54.126Z,89.34
2023-01-19T09:33:55.682Z,88.83
2023-01-19T09:35:57.312Z,88.05
2023-01-19T09:37:59.476Z,88.65
2023-01-19T09:40:02.066Z,87.64
2023-01-19T09:42:28.739Z,86.66
2023-01-19T09:44:32.599Z,85.90
2023-01-19T09:46:41.653Z,84.57
2023-01-19T09:48:48.177Z,84.38
2023-01-19T09:50:50.167Z,82.34
2023-01-19T09:53:24.256Z,81.93
2023-01-19T09:55:27.241Z,82.62
2023-01-19T09:57:30.169Z,83.43
2023-01-19T09:59:33.713Z,82.67
2023-01-19T10:01:35.697Z,81.97
2023-01-19T10:03:41.264Z,82.75
2023-01-19T10:05:50.476Z,82.87
2023-01-19T10:08:21.341Z,82.55
2023-01-19T10:10:26.870Z,81.91
2023-01-19T10:12:51.715Z,82.20
2023-01-19T10:15:11.433Z,82.41
2023-01-19T10:17:38.497Z,82.18
2023-01-19T10:19:47.513Z,82.07
2023-01-19T10:21:51.401Z,81.71
2023-01-19T10:24:05.884Z,81.33
2023-01-19T10:26:28.018Z,81.56
2023-01-19T10:28:30.066Z,78.23
2023-01-19T10:30:31.740Z,76.35
2023-01-19T10:32:35.965Z,75.67
2023-01-19T10:34:37.769Z,75.44
2023-01-19T10:36:40.905Z,74.55
2023-01-19T10:38:42.549Z,74.01
2023-01-19T10:40:52.786Z,73.82
2023-01-19T10:42:56.759Z,71.73
2023-01-19T10:44:58.563Z,71.96
2023-01-19T10:47:01.919Z,71.58
2023-01-19T10:49:04.178Z,72.58
2023-01-19T10:51:06.536Z,72.95
2023-01-19T10:53:22.069Z,72.13
2023-01-19T10:55:29.306Z,72.57
2023-01-19T10:57:43.231Z,71.95
2023-01-19T10:59:45.148Z,72.66
2023-01-19T11:02:15.776Z,73.73
2023-01-19T11:04:28.844Z,73.78
2023-01-19T11:06:31.614Z,74.06
2023-01-19T11:08:33.835Z,75.77
2023-01-19T11:10:35.765Z,74.63
2023-01-19T11:12:42.725Z,74.46
2023-01-19T11:14:45.360Z,75.34
2023-01-19T11:16:57.772Z,75.33
2023-01-19T11:19:01.957Z,77.74
2023-01-19T11:21:06.502Z,76.98
2023-01-19T11:23:30.877Z,78.12
2023-01-19T11:25:35.712Z,78.70
2023-01-19T11:27:37.978Z,79.04
2023-01-19T11:29:48.144Z,78.75
2023-01-19T11:31:50.621Z,79.24
2023-01-19T11:33:55.440Z,80.84
2023-01-19T11:36:03.803Z,79.99
2023-01-19T11:38:07.780Z,80.00
2023-01-19T11:40:10.261Z,80.03
2023-01-19T11:42:13.279Z,80.63
2023-01-19T11:44:39.124Z,82.65
2023-01-19T11:46:44.025Z,82.47
2023-01-19T11:49:02.144Z,82.69
2023-01-19T11:51:06.103Z,82.23
2023-01-19T11:53:15.095Z,82.26
2023-01-19T11:55:25.172Z,82.61
2023-01-19T11:57:27.308Z,83.96
2023-01-19T11:59:29.043Z,83.82
2023-01-19T12:01:34.340Z,83.16
2023-01-19T12:03:44.369Z,83.97
2023-01-19T12:05:51.427Z,83.82
2023-01-19T12:07:54.015Z,85.25
2023-01-19T12:10:07.494Z,84.99
2023-01-19T12:12:25.557Z,85.22
2023-01-19T12:14:36.270Z,84.94
2023-01-19T12:16:38.945Z,85.31
2023-01-19T12:18:59.276Z,85.79
2023-01-19T12:21:02.934Z,87.13
2023-01-19T12:23:27.565Z,86.63
2023-01-19T12:25:52.748Z,86.66
2023-01-19T12:27:57.464Z,87.67
2023-01-19T12:29:59.840Z,87.55
2023-01-19T12:32:13.575Z,87.78
2023-01-19T12:34:31.200Z,88.66
2023-01-19T12:36:37.392Z,88.53
2023-01-19T12:38:44.854Z,87.55
2023-01-19T12:40:46.832Z,87.91
2023-01-19T12:42:56.959Z,87.97
2023-01-19T12:45:16.880Z,87.40
2023-01-19T12:47:24.427Z,88.09
2023-01-19T12:49:38.715Z,87.36
2023-01-19T12:51:41.036Z,87.40
2023-01-19T12:53:51.803Z,87.72
2023-01-19T12:56:05.970Z,86.25
2023-01-19T12:58:17.703Z,86.32
2023-01-19T13:00:22.014Z,86.93
2023-01-19T13:02:23.710Z,86.89
2023-01-19T13:04:33.147Z,86.65
2023-01-19T13:06:47.216Z,86.65
2023-01-19T13:08:59.955Z,86.73
2023-01-19T13:11:10.327Z,87.33
2023-01-19T13:13:18.615Z,87.51
2023-01-19T13:15:33.421Z,87.35
2023-01-19T13:17:50.972Z,87.21
2023-01-19T13:20:00.283Z,87.29
2023-01-19T13:22:44.711Z,87.92
2023-01-19T13:25:06.763Z,87.16
2023-01-19T13:27:12.969Z,87.79
2023-01-19T13:29:19.600Z,86.60
2023-01-19T13:31:22.752Z,86.24
2023-01-19T13:33:25.812Z,86.88
2023-01-19T13:35:28.531Z,87.27
2023-01-19T13:37:39.362Z,87.32
2023-01-19T13:39:46.135Z,88.30
2023-01-19T13:41:50.411Z,90.19
2023-01-19T13:44:02.069Z,87.66
2023-01-19T13:46:04.414Z,87.01
2023-01-19T13:48:12.731Z,87.95
2023-01-19T13:50:24.032Z,87.91
2023-01-19T13:52:29.518Z,87.36
2023-01-19T13:54:31.357Z,87.60
2023-01-19T13:56:33.592Z,87.68
2023-01-19T13:58:35.425Z,88.64
2023-01-19T14:00:38.417Z,88.49
2023-01-19T14:02:59.123Z,88.10
2023-01-19T14:05:24.210Z,89.66
2023-01-19T14:07:28.491Z,89.53
2023-01-19T14:09:30.752Z,89.22
2023-01-19T14:11:32.277Z,90.24
2023-01-19T14:13:41.517Z,90.15
2023-01-19T14:15:45.040Z,90.20
2023-01-19T14:18:10.923Z,90.84
2023-01-19T14:20:29.922Z,91.28
2023-01-19T14:22:43.705Z,90.97
2023-01-19T14:24:45.367Z,91.26
2023-01-19T14:26:52.620Z,91.44
2023-01-19T14:28:54.498Z,92.42
2023-01-19T14:30:59.391Z,91.76
2023-01-19T14:33:01.149Z,91.33
2023-01-19T14:35:05.657Z,91.25
2023-01-19T14:37:21.650Z,91.43
2023-01-19T14:39:26.087Z,91.59
2023-01-19T14:41:35.822Z,91.62
2023-01-19T14:43:43.839Z,91.86
2023-01-19T14:45:47.195Z,91.63
2023-01-19T14:47:57.587Z,91.19
2023-01-19T14:50:07.497Z,91.39
2023-01-19T14:52:34.329Z,91.08
2023-01-19T14:54:40.282Z,90.46
2023-01-19T14:56:41.885Z,89.92
2023-01-19T14:58:43.519Z,90.12
2023-01-19T15:00:46.866Z,90.13
2023-01-19T15:02:48.822Z,90.63
2023-01-19T15:04:54.992Z,91.28
2023-01-19T15:06:56.616Z,91.66
2023-01-19T15:08:58.785Z,91.50
2023-01-19T15:11:10.849Z,91.61
2023-01-19T15:13:20.315Z,91.14
2023-01-19T15:15:33.488Z,90.71
2023-01-19T15:17:35.607Z,91.00
2023-01-19T15:19:37.277Z,91.17
2023-01-19T15:21:42.423Z,91.26
2023-01-19T15:23:44.045Z,90.81
2023-01-19T15:25:45.830Z,90.58
2023-01-19T15:27:48.557Z,91.43
2023-01-19T15:29:50.190Z,91.40
2023-01-19T15:31:52.761Z,91.68
2023-01-19T15:33:54.338Z,92.20
2023-01-19T15:35:56.366Z,92.33
2023-01-19T15:37:57.877Z,91.98
2023-01-19T15:39:59.492Z,91.65
2023-01-19T15:42:02.492Z,92.04
2023-01-19T15:44:06.252Z,92.22
2023-01-19T15:46:11.119Z,93.15
2023-01-19T15:48:12.698Z,92.75
2023-01-19T15:50:15.577Z,92.14
2023-01-19T15:52:17.341Z,92.25
2023-01-19T15:54:19.068Z,94.04
2023-01-19T15:56:29.161Z,92.97
2023-01-19T15:58:31.001Z,92.28
2023-01-19T16:00:34.167Z,93.10
2023-01-19T16:02:37.013Z,93.68
2023-01-19T16:04:38.579Z,92.91
2023-01-19T16:06:40.271Z,93.10
2023-01-19T16:08:42.651Z,92.98
2023-01-19T16:10:44.416Z,93.77
2023-01-19T16:12:47.785Z,94.46
2023-01-19T16:14:49.321Z,94.41
2023-01-19T16:16:50.906Z,94.62
2023-01-19T16:18:52.559Z,94.14
2023-01-19T16:20:54.280Z,94.55
2023-01-19T16:23:00.668Z,94.43
2023-01-19T16:25:08.123Z,94.92
2023-01-19T16:27:25.561Z,95.15
2023-01-19T16:29:27.095Z,94.66
2023-01-19T16:31:29.389Z,94.74
2023-01-19T16:33:31.254Z,94.62
2023-01-19T16:35:33.033Z,94.37
2023-01-19T16:37:34.561Z,94.91
2023-01-19T16:39:36.369Z,93.83
2023-01-19T16:41:38.364Z,93.94
2023-01-19T16:43:39.927Z,93.32
2023-01-19T16:46:04.351Z,92.97
2023-01-19T16:48:06.135Z,93.27
2023-01-19T16:50:11.613Z,92.80
2023-01-19T16:52:13.423Z,92.98
2023-01-19T16:54:20.187Z,92.49
2023-01-19T16:56:21.850Z,93.06
2023-01-19T16:58:23.737Z,93.02
2023-01-19T17:00:25.243Z,92.89
2023-01-19T17:02:26.804Z,92.82
2023-01-19T17:04:28.703Z,93.11
2023-01-19T17:06:31.131Z,92.87
2023-01-19T17:08:33.704Z,92.88
2023-01-19T17:10:39.962Z,92.80
2023-01-19T17:12:41.529Z,92.90
2023-01-19T17:14:43.706Z,93.55
2023-01-19T17:16:45.337Z,92.93
2023-01-19T17:18:48.013Z,93.67
2023-01-19T17:20:49.791Z,93.45
2023-01-19T17:22:51.900Z,93.51
2023-01-19T17:24:53.411Z,93.17
2023-01-19T17:26:54.933Z,93.74
2023-01-19T17:29:01.325Z,93.23
2023-01-19T17:31:13.785Z,93.37
2023-01-19T17:33:15.350Z,93.44
2023-01-19T17:35:16.973Z,93.31
2023-01-19T17:37:18.917Z,93.21
2023-01-19T17:39:20.563Z,93.17
2023-01-19T17:41:27.888Z,93.27
2023-01-19T17:43:29.502Z,93.49
2023-01-19T17:45:33.870Z,93.39
2023-01-19T17:47:35.632Z,93.29
2023-01-19T17:49:37.367Z,93.30
2023-01-19T17:51:39.347Z,93.54
2023-01-19T17:53:42.028Z,93.54
2023-01-19T17:55:43.759Z,93.67
2023-01-19T17:57:45.689Z,92.88
2023-01-19T17:59:47.714Z,93.13
2023-01-19T18:01:49.514Z,93.25
2023-01-19T18:03:51.186Z,93.39
2023-01-19T18:05:53.958Z,93.35
2023-01-19T18:07:55.496Z,93.89
2023-01-19T18:09:58.984Z,93.49
2023-01-19T18:12:01.994Z,93.63
2023-01-19T18:14:05.255Z,93.62
2023-01-19T18:16:10.657Z,94.11
2023-01-19T18:18:13.260Z,94.86
2023-01-19T18:20:15.140Z,94.71
2023-01-19T18:22:17.601Z,94.51
2023-01-19T18:24:19.123Z,94.54
2023-01-19T18:26:22.249Z,94.77
2023-01-19T18:28:23.810Z,93.96
2023-01-19T18:30:25.437Z,93.63
2023-01-19T18:32:27.307Z,94.22
2023-01-19T18:34:28.890Z,94.30
2023-01-19T18:36:34.318Z,94.35
2023-01-19T18:38:36.213Z,93.69
2023-01-19T18:40:39.968Z,96.83
2023-01-19T18:42:41.551Z,93.40
2023-01-19T18:44:43.659Z,92.70
2023-01-19T18:46:45.218Z,92.92
2023-01-19T18:48:46.832Z,92.83
2023-01-19T18:50:48.386Z,93.84
2023-01-19T18:52:51.231Z,93.69
2023-01-19T18:54:52.796Z,93.65
2023-01-19T18:56:54.585Z,93.61
2023-01-19T18:58:56.485Z,93.59
2023-01-19T19:00:59.831Z,93.97
2023-01-19T19:03:01.459Z,93.20
2023-01-19T19:05:03.512Z,93.15
2023-01-19T19:07:05.614Z,93.40
2023-01-19T19:09:07.208Z,93.55
2023-01-19T19:11:09.057Z,93.69
2023-01-19T19:13:12.909Z,93.88
2023-01-19T19:15:14.483Z,93.29
2023-01-19T19:17:16.058Z,93.20
2023-01-19T19:19:18.346Z,93.42
2023-01-19T19:21:21.755Z,93.88
2023-01-19T19:23:23.596Z,94.31
2023-01-19T19:25:25.476Z,94.32
2023-01-19T19:27:27.800Z,94.35
2023-01-19T19:29:29.803Z,94.05
2023-01-19T19:31:31.836Z,94.05
2023-01-19T19:33:37.027Z,94.17
2023-01-19T19:35:39.195Z,93.97
2023-01-19T19:37:40.712Z,94.10
2023-01-19T19:39:42.461Z,94.18
2023-01-19T19:41:44.008Z,94.39
2023-01-19T19:43:45.614Z,94.55
2023-01-19T19:46:19.021Z,94.63
2023-01-19T19:48:20.549Z,94.90
2023-01-19T19:50:22.057Z,94.45
2023-01-19T19:52:23.893Z,94.29
2023-01-19T19:54:26.014Z,94.23
2023-01-19T19:56:29.986Z,94.35
2023-01-19T19:58:31.909Z,94.55
2023-01-19T20:00:33.535Z,93.93
2023-01-19T20:02:35.186Z,94.41
2023-01-19T20:04:37.219Z,94.28
2023-01-19T20:06:41.251Z,94.36
2023-01-19T20:08:43.610Z,94.19
2023-01-19T20:10:45.150Z,94.02
2023-01-19T20:12:46.691Z,93.29
2023-01-19T20:14:48.575Z,93.31
2023-01-19T20:16:50.317Z,93.80
2023-01-19T20:18:56.391Z,93.71
2023-01-19T20:20:59.721Z,93.58
2023-01-19T20:23:01.730Z,93.99
2023-01-19T20:25:03.450Z,93.75
2023-01-19T20:27:04.981Z,93.51
2023-01-19T20:29:06.904Z,92.51
2023-01-19T20:31:29.016Z,92.74
2023-01-19T20:33:30.700Z,93.19
2023-01-19T20:35:32.265Z,93.97
2023-01-19T20:37:34.072Z,93.56
2023-01-19T20:39:37.083Z,94.03
2023-01-19T20:41:43.613Z,93.58
2023-01-19T20:43:45.851Z,93.93
2023-01-19T20:45:47.921Z,93.81
2023-01-19T20:47:49.498Z,93.57
2023-01-19T20:49:51.103Z,93.72
2023-01-19T20:51:53.273Z,93.71
2023-01-19T20:53:54.803Z,94.10
2023-01-19T20:55:56.449Z,93.97
2023-01-19T20:57:58.013Z,93.50
2023-01-19T20:59:59.625Z,93.13
2023-01-19T21:02:01.464Z,92.04
2023-01-19T21:04:03.606Z,92.22
2023-01-19T21:06:05.810Z,92.77
2023-01-19T21:08:08.783Z,93.34
2023-01-19T21:10:10.476Z,93.15
2023-01-19T21:12:13.214Z,93.26
2023-01-19T21:14:14.860Z,92.87
2023-01-19T21:16:16.978Z,92.94
2023-01-19T21:18:18.614Z,92.33
2023-01-19T21:20:20.461Z,92.16
2023-01-19T21:22:22.080Z,92.51
2023-01-19T21:24:23.700Z,92.48
2023-01-19T21:26:25.769Z,92.28
2023-01-19T21:28:28.725Z,92.14
2023-01-19T21:30:30.441Z,92.15
2023-01-19T21:32:32.148Z,91.55
2023-01-19T21:34:34.440Z,91.59
2023-01-19T21:36:36.047Z,92.47
2023-01-19T21:38:38.432Z,92.80
2023-01-19T21:40:39.979Z,92.31
2023-01-19T21:42:41.728Z,91.80
2023-01-19T21:44:43.812Z,91.85
2023-01-19T21:46:45.516Z,92.82
2023-01-19T21:48:48.004Z,92.88
2023-01-19T21:50:58.439Z,93.08
2023-01-19T21:53:00.381Z,92.69
2023-01-19T21:55:02.383Z,92.79
2023-01-19T21:57:04.098Z,93.03
2023-01-19T21:59:05.966Z,92.86
2023-01-19T22:01:11.073Z,93.56
2023-01-19T22:03:12.769Z,93.61
2023-01-19T22:05:14.927Z,94.01
2023-01-19T22:07:17.128Z,93.35
2023-01-19T22:09:18.784Z,94.00
2023-01-19T22:11:21.178Z,93.43
2023-01-19T22:13:22.756Z,92.97
2023-01-19T22:15:24.319Z,93.13
2023-01-19T22:17:26.145Z,92.87
2023-01-19T22:19:27.899Z,92.83
2023-01-19T22:21:32.930Z,92.11
2023-01-19T22:23:34.781Z,91.91
2023-01-19T22:25:36.387Z,92.24
2023-01-19T22:27:39.256Z,92.23
2023-01-19T22:29:40.756Z,92.72
2023-01-19T22:31:43.101Z,92.96
2023-01-19T22:33:45.369Z,93.23
2023-01-19T22:35:46.931Z,92.87
2023-01-19T22:37:48.751Z,92.78
2023-01-19T22:39:50.712Z,92.33
2023-01-19T22:41:52.523Z,92.36
2023-01-19T22:43:56.891Z,92.24
2023-01-19T22:45:59.211Z,92.98
2023-01-19T22:48:00.881Z,92.89
2023-01-19T22:50:02.508Z,92.29
2023-01-19T22:52:04.241Z,91.76
2023-01-19T22:54:06.657Z,91.96
2023-01-19T22:56:11.671Z,92.22
2023-01-19T22:58:13.408Z,92.05
2023-01-19T23:00:15.302Z,92.46
2023-01-19T23:02:18.583Z,92.94
2023-01-19T23:04:21.531Z,92.81
2023-01-19T23:06:26.006Z,92.30
2023-01-19T23:08:27.539Z,94.77
2023-01-19T23:10:29.177Z,92.14
2023-01-19T23:12:30.728Z,92.26
2023-01-19T23:14:32.476Z,92.21
2023-01-19T23:16:34.855Z,91.71
2023-01-19T23:18:36.652Z,91.90
2023-01-19T23:20:38.180Z,91.65
2023-01-19T23:22:39.810Z,92.68
2023-01-19T23:24:41.343Z,92.61
2023-01-19T23:26:43.023Z,92.54
2023-01-19T23:28:46.185Z,92.40
2023-01-19T23:30:47.653Z,92.26
2023-01-19T23:32:49.761Z,91.91
2023-01-19T23:34:51.537Z,92.07
2023-01-19T23:36:53.080Z,92.33
2023-01-19T23:38:57.274Z,92.80
2023-01-19T23:40:59.180Z,93.02
2023-01-19T23:43:00.919Z,94.38
2023-01-19T23:45:02.640Z,94.72
2023-01-19T23:47:04.196Z,95.98
2023-01-19T23:49:05.753Z,96.32
2023-01-19T23:51:08.993Z,95.75
2023-01-19T23:53:10.486Z,94.82
2023-01-19T23:55:12.272Z,93.77
2023-01-19T23:57:13.993Z,93.23
2023-01-19T23:59:16.541Z,92.76
